Time;durP1;ratioP1;P1;durP2;ratioP2;P2;SDS_P1;SDS_P2;PMS_P1;PMS_P2;Temp;Humidity;BMP_temperature;BMP_pressure;BME280_temperature;BME280_humidity;BME280_pressure;Samples;Min_cycle;Max_cycle;Signal;HPM_P1;HPM_P2
2022/11/04 00:01:55;;;;;;;1.87;1.10;;;11.70;99.90;;;;;;5058546;28;20206;-77
2022/11/04 00:04:25;;;;;;;3.83;1.33;;;11.70;99.90;;;;;;5068340;28;20202;-77
2022/11/04 00:06:54;;;;;;;2.13;1.13;;;11.70;99.90;;;;;;5066064;28;20202;-76
2022/11/04 00:09:23;;;;;;;1.30;1.10;;;11.70;99.90;;;;;;5061620;28;20225;-77
2022/11/04 00:14:36;;;;;;;2.33;0.90;;;11.70;99.90;;;;;;5064127;28;20216;-77
2022/11/04 00:17:20;;;;;;;1.50;0.90;;;11.60;99.90;;;;;;5062344;28;20201;-76
2022/11/04 00:33:24;;;;;;;1.20;1.10;;;11.60;99.90;;;;;;5064384;28;20579;-77
2022/11/04 00:33:48;;;;;;;2.17;1.50;;;11.50;99.90;;;;;;5064313;28;20591;-77
2022/11/04 00:36:17;;;;;;;1.30;1.20;;;11.50;99.90;;;;;;5065108;28;20224;-77
2022/11/04 00:38:44;;;;;;;2.50;1.40;;;11.50;99.90;;;;;;5080270;28;20212;-78
2022/11/04 00:41:25;;;;;;;1.73;1.20;;;11.50;99.90;;;;;;5063997;28;20221;-76
2022/11/04 00:43:53;;;;;;;1.40;1.30;;;11.40;99.90;;;;;;5063914;28;20206;-77
2022/11/04 00:46:20;;;;;;;1.43;1.20;;;11.30;99.90;;;;;;5065911;28;20216;-77
2022/11/04 00:48:48;;;;;;;1.77;1.30;;;11.40;99.90;;;;;;5064957;28;20201;-76
2022/11/04 00:51:18;;;;;;;2.43;1.47;;;11.40;99.90;;;;;;5063429;28;20232;-76
2022/11/04 00:53:46;;;;;;;1.80;1.33;;;11.40;99.90;;;;;;5063342;28;20198;-76
2022/11/04 00:56:13;;;;;;;1.40;1.10;;;11.30;99.90;;;;;;5067914;28;20225;-76
2022/11/04 00:58:46;;;;;;;1.63;1.20;;;11.30;99.90;;;;;;5083237;28;20194;-76
2022/11/04 01:01:16;;;;;;;2.67;1.53;;;11.40;99.90;;;;;;5069360;28;20578;-77
2022/11/04 01:03:44;;;;;;;3.07;1.30;;;11.40;99.90;;;;;;5072738;28;20667;-76
2022/11/04 01:06:11;;;;;;;2.67;1.30;;;11.30;99.90;;;;;;5073267;28;20202;-76
2022/11/04 01:08:40;;;;;;;2.17;1.37;;;11.20;99.90;;;;;;5072876;28;20209;-77
2022/11/04 01:11:11;;;;;;;2.63;1.57;;;11.20;99.90;;;;;;5068035;28;20222;-76
2022/11/04 01:13:39;;;;;;;1.30;1.20;;;11.20;99.90;;;;;;5073174;28;20217;-76
2022/11/04 01:16:09;;;;;;;2.13;1.63;;;11.30;99.90;;;;;;5073137;28;20709;-76
2022/11/04 01:18:37;;;;;;;2.70;1.57;;;11.30;99.90;;;;;;5070819;28;20288;-77
2022/11/04 01:21:06;;;;;;;2.67;1.60;;;11.30;99.90;;;;;;5064972;28;20232;-76
2022/11/04 01:23:34;;;;;;;2.73;1.40;;;11.30;99.90;;;;;;5071058;28;20201;-76
2022/11/04 01:26:05;;;;;;;2.03;1.83;;;11.30;99.90;;;;;;5070277;28;20213;-77
2022/11/04 01:28:32;;;;;;;2.03;1.83;;;11.30;99.90;;;;;;5073976;28;20641;-76
2022/11/04 01:31:00;;;;;;;2.13;1.77;;;11.30;99.90;;;;;;5067534;28;20236;-76
2022/11/04 01:33:27;;;;;;;3.77;2.10;;;11.30;99.90;;;;;;5067082;28;20694;-76
2022/11/04 01:35:59;;;;;;;3.03;2.33;;;11.30;99.90;;;;;;5065217;28;20222;-76
2022/11/04 01:38:26;;;;;;;2.57;2.23;;;11.30;99.90;;;;;;5069553;28;20690;-76
2022/11/04 01:40:54;;;;;;;2.63;2.43;;;11.20;99.90;;;;;;5068037;28;20222;-77
2022/11/04 01:43:23;;;;;;;3.80;3.40;;;11.20;99.90;;;;;;5071854;28;20846;-76
2022/11/04 01:45:55;;;;;;;2.97;2.67;;;11.10;99.90;;;;;;5072894;28;20198;-77
2022/11/04 01:48:26;;;;;;;3.83;2.73;;;11.20;99.90;;;;;;5073519;28;20213;-76
2022/11/04 01:50:54;;;;;;;3.00;2.80;;;11.20;99.90;;;;;;5068222;28;20240;-77
2022/11/04 01:53:26;;;;;;;3.37;2.70;;;11.20;99.90;;;;;;5072030;28;20209;-76
2022/11/04 01:55:58;;;;;;;3.40;2.90;;;11.20;99.90;;;;;;5066700;28;20683;-76
2022/11/04 01:58:30;;;;;;;4.27;2.97;;;11.20;99.90;;;;;;5060808;28;20289;-76
2022/11/04 02:00:58;;;;;;;3.80;3.43;;;11.20;99.90;;;;;;5062289;28;20240;-76
2022/11/04 02:03:31;;;;;;;5.07;2.90;;;11.20;99.90;;;;;;5066261;28;20199;-76
2022/11/04 02:06:00;;;;;;;4.13;3.73;;;11.10;99.90;;;;;;5068977;28;20194;-76
2022/11/04 02:08:28;;;;;;;5.10;3.60;;;11.10;99.90;;;;;;5066515;28;20204;-77
2022/11/04 02:10:59;;;;;;;3.47;3.17;;;11.10;99.90;;;;;;5067942;28;20222;-77
2022/11/04 02:13:29;;;;;;;4.53;3.33;;;11.10;99.90;;;;;;5065034;28;20687;-77
2022/11/04 02:16:08;;;;;;;4.23;3.60;;;11.10;99.90;;;;;;5067971;28;20218;-76
2022/11/04 02:18:49;;;;;;;4.63;3.00;;;11.20;99.90;;;;;;5067712;28;20206;-76
2022/11/04 02:21:47;;;;;;;4.57;3.43;;;11.20;99.90;;;;;;5067718;28;20228;-77
2022/11/04 02:24:36;;;;;;;6.20;3.00;;;11.20;99.90;;;;;;5078812;28;20193;-76
2022/11/04 02:27:27;;;;;;;4.07;3.67;;;11.10;99.90;;;;;;5064801;28;20224;-77
2022/11/04 02:30:04;;;;;;;4.27;3.60;;;11.00;99.90;;;;;;5067156;28;20217;-76
2022/11/04 02:32:47;;;;;;;2.83;2.43;;;11.10;99.90;;;;;;5065560;28;20206;-77
2022/11/04 02:35:22;;;;;;;5.50;2.80;;;11.00;99.90;;;;;;5065145;28;20236;-77
2022/11/04 02:37:57;;;;;;;4.63;2.67;;;11.10;99.90;;;;;;5060019;28;20652;-77
2022/11/04 02:40:34;;;;;;;5.03;2.53;;;11.10;99.90;;;;;;5068935;28;20236;-77
2022/11/04 02:43:10;;;;;;;4.57;2.93;;;11.10;99.90;;;;;;5071645;28;20194;-76
2022/11/04 02:45:42;;;;;;;4.30;3.23;;;11.00;99.90;;;;;;5070686;28;20189;-76
2022/11/04 02:48:16;;;;;;;4.20;3.27;;;11.00;99.90;;;;;;5068110;28;20194;-76
2022/11/04 02:50:51;;;;;;;5.97;3.53;;;11.00;99.90;;;;;;5071168;28;20221;-76
2022/11/04 02:53:23;;;;;;;4.23;3.30;;;11.00;99.90;;;;;;5061927;28;20283;-77
2022/11/04 02:55:55;;;;;;;4.43;3.17;;;11.00;99.90;;;;;;5070625;28;20213;-76
2022/11/04 02:58:27;;;;;;;3.10;2.80;;;11.00;99.90;;;;;;5070947;28;20198;-77
2022/11/04 03:01:00;;;;;;;6.13;3.03;;;11.00;99.90;;;;;;5061615;28;20228;-77
2022/11/04 03:03:34;;;;;;;3.93;3.00;;;11.00;99.90;;;;;;5070204;28;20189;-76
2022/11/04 03:06:10;;;;;;;6.87;3.73;;;11.00;99.90;;;;;;5071334;28;20197;-76
2022/11/04 03:08:41;;;;;;;5.67;2.70;;;11.00;99.90;;;;;;5069683;28;20194;-78
2022/11/04 03:11:13;;;;;;;6.83;3.07;;;11.00;99.90;;;;;;5068673;28;20225;-76
2022/11/04 03:13:46;;;;;;;4.60;1.93;;;10.90;99.90;;;;;;5069210;28;20231;-76
2022/11/04 03:16:17;;;;;;;5.37;2.67;;;10.90;99.90;;;;;;5069436;28;20204;-76
2022/11/04 03:18:54;;;;;;;5.50;2.27;;;10.80;99.90;;;;;;5075770;28;20198;-77
2022/11/04 03:21:24;;;;;;;3.90;2.80;;;10.80;99.90;;;;;;5069175;28;20218;-76
2022/11/04 03:23:52;;;;;;;6.10;2.13;;;10.80;99.90;;;;;;5070257;28;20197;-78
2022/11/04 03:26:25;;;;;;;4.90;2.10;;;10.70;99.90;;;;;;5056395;28;20195;-76
2022/11/04 03:29:04;;;;;;;4.33;2.47;;;10.70;99.90;;;;;;5066710;28;20666;-76
2022/11/04 03:31:43;;;;;;;3.50;2.30;;;10.70;99.90;;;;;;5063718;28;20204;-76
2022/11/04 03:34:11;;;;;;;3.73;2.17;;;10.70;99.90;;;;;;5069545;28;20205;-76
2022/11/04 03:36:39;;;;;;;4.50;2.10;;;10.60;99.90;;;;;;5077286;28;20214;-76
2022/11/04 03:39:06;;;;;;;5.13;2.10;;;10.70;99.90;;;;;;5070729;28;20189;-76
2022/11/04 03:41:38;;;;;;;8.40;2.67;;;10.70;99.90;;;;;;5067479;28;20201;-77
2022/11/04 03:44:06;;;;;;;5.30;2.10;;;10.60;99.90;;;;;;5065620;28;20216;-77
2022/11/04 03:46:35;;;;;;;4.73;2.60;;;10.50;99.90;;;;;;5065897;28;20201;-76
2022/11/04 03:49:04;;;;;;;4.03;1.90;;;10.60;99.90;;;;;;5071667;28;20678;-76
2022/11/04 03:51:31;;;;;;;4.63;2.10;;;10.60;99.90;;;;;;5069512;28;20194;-77
2022/11/04 03:53:59;;;;;;;6.10;2.47;;;10.50;99.90;;;;;;5063054;28;20706;-77
2022/11/04 03:56:50;;;;;;;4.00;1.77;;;10.50;99.90;;;;;;5066825;28;20233;-77
2022/11/04 03:59:32;;;;;;;4.43;2.13;;;10.50;99.90;;;;;;5057549;28;20549;-77
2022/11/04 04:02:06;;;;;;;3.37;1.67;;;10.40;99.90;;;;;;5064503;28;20202;-76
2022/11/04 04:04:39;;;;;;;2.10;1.70;;;10.40;99.90;;;;;;5065669;28;20193;-76
2022/11/04 04:07:13;;;;;;;3.87;2.03;;;10.40;99.90;;;;;;5066394;28;20193;-77
2022/11/04 04:09:44;;;;;;;5.00;2.00;;;10.40;99.90;;;;;;5066430;28;20228;-77
2022/11/04 04:12:17;;;;;;;3.73;1.47;;;10.40;99.90;;;;;;5067397;28;20228;-76
2022/11/04 04:14:51;;;;;;;6.23;2.00;;;10.30;99.90;;;;;;5065759;28;20209;-77
2022/11/04 04:17:28;;;;;;;5.33;1.80;;;10.40;99.90;;;;;;5064545;28;20221;-77
2022/11/04 04:20:00;;;;;;;2.63;1.53;;;10.50;99.90;;;;;;5069267;28;20221;-78
2022/11/04 04:22:31;;;;;;;3.97;1.87;;;10.40;99.90;;;;;;5067541;28;20205;-76
2022/11/04 04:27:48;;;;;;;4.17;1.60;;;10.40;99.90;;;;;;5061532;28;20192;-77
2022/11/04 04:30:17;;;;;;;6.23;2.10;;;10.40;99.90;;;;;;5064015;28;20711;-76
2022/11/04 04:32:50;;;;;;;4.83;1.73;;;10.30;99.90;;;;;;5068856;28;20198;-77
2022/11/04 04:46:32;;;;;;;6.97;2.97;;;10.30;99.90;;;;;;5070994;28;20200;-77
2022/11/04 04:49:05;;;;;;;4.73;2.70;;;10.30;99.90;;;;;;5071556;28;20213;-77
2022/11/04 04:51:34;;;;;;;7.70;2.80;;;10.40;99.90;;;;;;5068548;28;20207;-77
2022/11/04 04:54:02;;;;;;;4.30;2.30;;;10.30;99.90;;;;;;5071593;28;20663;-77
2022/11/04 04:56:29;;;;;;;3.70;1.93;;;10.30;99.90;;;;;;5073698;28;20221;-77
2022/11/04 04:59:11;;;;;;;3.73;2.03;;;10.30;99.90;;;;;;5073994;28;20209;-76
2022/11/04 05:01:39;;;;;;;7.77;2.00;;;10.40;99.90;;;;;;5071774;28;20209;-76
2022/11/04 05:04:07;;;;;;;7.30;2.73;;;10.40;99.90;;;;;;5071251;28;20201;-76
2022/11/04 05:06:35;;;;;;;3.97;2.10;;;10.30;99.90;;;;;;5067695;28;20198;-77
2022/11/04 05:09:02;;;;;;;6.83;2.80;;;10.30;99.90;;;;;;5073970;28;20659;-76
2022/11/04 05:11:30;;;;;;;4.50;1.90;;;10.40;99.90;;;;;;5074262;28;20190;-76
2022/11/04 05:13:57;;;;;;;4.33;2.20;;;10.40;99.90;;;;;;5065109;28;20205;-76
2022/11/04 05:16:25;;;;;;;7.37;2.37;;;10.40;99.90;;;;;;5068974;28;20213;-76
2022/11/04 05:18:54;;;;;;;6.70;2.00;;;10.30;99.90;;;;;;5070410;28;20194;-76
2022/11/04 05:21:23;;;;;;;4.67;2.17;;;10.40;99.90;;;;;;5073547;28;20640;-76
2022/11/04 05:23:51;;;;;;;5.40;2.63;;;10.30;99.90;;;;;;5072958;28;20231;-76
2022/11/04 05:26:18;;;;;;;7.17;1.90;;;10.40;99.90;;;;;;5066249;28;20198;-78
2022/11/04 05:28:46;;;;;;;3.83;1.63;;;10.40;99.90;;;;;;5065181;28;20193;-77
2022/11/04 05:31:13;;;;;;;7.27;2.30;;;10.40;99.90;;;;;;5072356;28;20225;-77
2022/11/04 05:33:41;;;;;;;6.57;2.03;;;10.40;99.90;;;;;;5065347;28;20194;-76
2022/11/04 05:36:09;;;;;;;3.67;2.30;;;10.40;99.90;;;;;;5072759;28;20204;-77
2022/11/04 05:38:44;;;;;;;8.40;2.30;;;10.30;99.90;;;;;;5072796;28;20197;-77
2022/11/04 05:41:24;;;;;;;5.17;1.93;;;10.40;99.90;;;;;;5064258;28;20217;-77
2022/11/04 05:43:52;;;;;;;4.50;2.33;;;10.40;99.90;;;;;;5073943;28;20208;-76
2022/11/04 05:46:19;;;;;;;7.00;2.57;;;10.40;99.90;;;;;;5072233;28;20208;-76
2022/11/04 05:48:47;;;;;;;6.07;2.00;;;10.40;99.90;;;;;;5067368;28;20194;-77
2022/11/04 05:51:15;;;;;;;8.63;2.90;;;10.50;99.90;;;;;;5061283;28;20683;-76
2022/11/04 05:53:44;;;;;;;6.23;2.17;;;10.50;99.90;;;;;;5074745;28;20190;-77
2022/11/04 05:56:11;;;;;;;7.83;2.53;;;10.50;99.90;;;;;;5072905;28;20193;-76
2022/11/04 05:58:39;;;;;;;5.37;2.77;;;10.50;99.90;;;;;;5071101;28;20206;-76
2022/11/04 06:01:22;;;;;;;5.27;2.30;;;10.50;99.90;;;;;;5074420;28;20226;-80
2022/11/04 06:03:50;;;;;;;6.80;2.73;;;10.60;99.90;;;;;;5074659;28;20198;-80
2022/11/04 06:06:17;;;;;;;4.07;2.00;;;10.60;99.90;;;;;;5079652;28;20197;-80
2022/11/04 06:08:46;;;;;;;8.47;2.50;;;10.60;99.90;;;;;;5084889;28;20206;-80
2022/11/04 06:11:14;;;;;;;6.47;2.40;;;10.60;99.90;;;;;;5083479;28;20220;-80
2022/11/04 06:13:41;;;;;;;8.70;2.30;;;10.60;99.90;;;;;;5083483;28;20280;-80
2022/11/04 06:16:09;;;;;;;8.53;2.83;;;10.60;99.90;;;;;;5078021;28;20213;-81
2022/11/04 06:18:36;;;;;;;7.43;2.70;;;10.60;99.90;;;;;;5084182;28;20218;-80
2022/11/04 06:21:21;;;;;;;7.43;2.33;;;10.60;99.90;;;;;;5080408;28;20226;-80
2022/11/04 06:23:55;;;;;;;9.47;3.07;;;10.60;99.90;;;;;;5074761;28;20193;-80
2022/11/04 06:27:05;;;;;;;6.33;2.40;;;10.50;99.90;;;;;;5079654;28;20209;-80
2022/11/04 06:29:38;;;;;;;7.37;2.57;;;10.60;99.90;;;;;;5077679;28;20218;-81
2022/11/04 06:32:06;;;;;;;4.60;2.40;;;10.70;99.90;;;;;;5075772;28;20209;-81
2022/11/04 06:34:36;;;;;;;7.57;3.40;;;10.60;99.90;;;;;;5077534;28;20197;-80
2022/11/04 06:37:03;;;;;;;9.37;3.37;;;10.60;99.90;;;;;;5078179;28;20205;-80
2022/11/04 06:39:32;;;;;;;8.60;3.33;;;10.60;99.90;;;;;;5074893;28;20225;-81
2022/11/04 06:42:00;;;;;;;7.50;3.67;;;10.60;99.90;;;;;;5081120;28;20204;-81
2022/11/04 06:44:27;;;;;;;8.20;4.17;;;10.60;99.90;;;;;;5072183;28;20220;-81
2022/11/04 06:46:55;;;;;;;7.53;3.43;;;10.70;99.90;;;;;;5081632;28;20193;-81
2022/11/04 06:49:23;;;;;;;9.00;4.67;;;10.70;99.90;;;;;;5076034;28;20217;-81
2022/11/04 06:51:56;;;;;;;10.63;5.00;;;10.80;99.90;;;;;;5081425;28;20214;-80
2022/11/04 06:54:24;;;;;;;10.60;5.27;;;10.70;99.90;;;;;;5077807;28;20553;-80
2022/11/04 06:56:55;;;;;;;8.87;5.27;;;10.70;99.90;;;;;;5081619;28;20182;-80
2022/11/04 06:59:23;;;;;;;8.20;5.60;;;10.80;99.90;;;;;;5080092;28;20221;-81
2022/11/04 07:01:51;;;;;;;11.17;6.30;;;10.80;99.90;;;;;;5073074;28;20213;-81
2022/11/04 07:04:19;;;;;;;10.00;6.37;;;10.80;99.90;;;;;;5069229;28;20204;-81
2022/11/04 07:06:46;;;;;;;17.47;6.50;;;10.80;99.90;;;;;;5086562;28;20202;-80
2022/11/04 07:09:18;;;;;;;12.40;7.03;;;10.80;99.90;;;;;;5075652;28;20206;-80
2022/11/04 07:11:45;;;;;;;10.77;5.20;;;10.90;99.90;;;;;;5072809;28;20202;-85
2022/11/04 07:14:20;;;;;;;8.37;4.10;;;11.00;99.90;;;;;;5075617;28;20208;-84
2022/11/04 07:16:50;;;;;;;7.00;2.83;;;11.40;99.90;;;;;;5070977;28;20203;-82
2022/11/04 07:19:17;;;;;;;5.97;2.42;;;12.50;99.90;;;;;;5077022;28;20198;-82
2022/11/04 07:21:48;;;;;;;4.93;2.53;;;13.20;99.90;;;;;;5075544;28;20202;-83
2022/11/04 07:24:15;;;;;;;4.22;1.95;;;13.20;99.90;;;;;;5075484;28;20202;-81
2022/11/04 07:26:43;;;;;;;5.32;1.58;;;13.20;99.90;;;;;;5075602;28;20201;-80
2022/11/04 07:29:11;;;;;;;6.22;2.22;;;12.10;99.90;;;;;;5075504;28;20574;-80
2022/11/04 07:31:39;;;;;;;7.05;2.15;;;11.60;99.90;;;;;;5074387;28;20190;-80
2022/11/04 07:34:07;;;;;;;3.47;1.75;;;11.50;99.90;;;;;;5073326;28;20655;-80
2022/11/04 07:36:34;;;;;;;5.25;1.73;;;11.40;99.90;;;;;;5073165;28;20205;-80
2022/11/04 07:39:02;;;;;;;3.90;2.07;;;11.20;99.90;;;;;;5078346;28;20210;-81
2022/11/04 07:41:30;;;;;;;2.30;1.63;;;11.00;99.90;;;;;;5072226;28;20201;-81
2022/11/04 07:43:59;;;;;;;4.00;1.70;;;11.00;99.90;;;;;;5073596;28;20216;-81
2022/11/04 07:46:27;;;;;;;3.27;1.80;;;11.00;99.90;;;;;;5074650;28;20205;-80
2022/11/04 07:48:58;;;;;;;4.70;1.97;;;11.00;99.90;;;;;;5077078;28;20202;-81
2022/11/04 07:51:27;;;;;;;2.03;1.53;;;11.10;99.90;;;;;;5078397;28;20197;-80
2022/11/04 07:53:55;;;;;;;4.70;1.77;;;11.10;99.90;;;;;;5077268;28;20201;-81
2022/11/04 07:56:23;;;;;;;5.93;1.90;;;11.10;99.90;;;;;;5074818;28;20201;-80
2022/11/04 07:58:51;;;;;;;3.10;1.73;;;11.10;99.90;;;;;;5077657;28;20571;-80
2022/11/04 08:01:22;;;;;;;5.87;1.97;;;11.00;99.90;;;;;;5076756;28;20232;-81
2022/11/04 08:03:49;;;;;;;7.53;2.00;;;11.00;99.90;;;;;;5062169;28;20206;-80
2022/11/04 08:06:20;;;;;;;5.43;2.40;;;11.00;99.90;;;;;;5070172;28;20213;-80
2022/11/04 08:08:47;;;;;;;5.23;2.10;;;11.00;99.90;;;;;;5071348;28;20651;-80
2022/11/04 08:11:17;;;;;;;5.30;2.33;;;11.00;99.90;;;;;;5075930;28;20221;-81
2022/11/04 08:13:46;;;;;;;7.20;2.07;;;11.10;99.90;;;;;;5076583;28;20193;-80
2022/11/04 08:16:15;;;;;;;6.93;2.20;;;11.10;99.90;;;;;;5073539;28;20216;-81
2022/11/04 08:18:44;;;;;;;4.77;2.10;;;11.10;99.90;;;;;;5064874;28;20225;-81
2022/11/04 08:21:12;;;;;;;5.83;2.30;;;11.20;99.90;;;;;;5076841;28;20228;-80
2022/11/04 08:23:45;;;;;;;4.73;2.07;;;11.10;99.90;;;;;;5065922;28;20205;-81
2022/11/04 08:26:15;;;;;;;5.00;2.13;;;11.30;99.90;;;;;;5088019;28;20204;-80
2022/11/04 08:28:42;;;;;;;3.47;1.50;;;11.30;99.90;;;;;;5072660;28;20198;-80
2022/11/04 08:31:13;;;;;;;4.63;1.80;;;11.30;99.90;;;;;;5074083;28;20233;-80
2022/11/04 08:33:41;;;;;;;3.13;1.60;;;11.30;99.90;;;;;;5076746;28;20197;-80
2022/11/04 08:36:14;;;;;;;6.50;1.77;;;11.30;99.90;;;;;;5075460;28;20209;-81
2022/11/04 08:38:41;;;;;;;5.47;2.20;;;11.40;99.90;;;;;;5073950;28;20220;-80
2022/11/04 08:41:12;;;;;;;3.13;1.73;;;11.40;99.90;;;;;;5070424;28;20225;-80
2022/11/04 08:43:41;;;;;;;4.07;1.80;;;11.40;99.90;;;;;;5075812;28;20206;-80
2022/11/04 08:46:10;;;;;;;4.00;1.50;;;11.50;99.90;;;;;;5072388;28;20201;-81
2022/11/04 08:48:39;;;;;;;5.60;2.17;;;11.50;99.90;;;;;;5073613;28;20194;-81
2022/11/04 08:51:11;;;;;;;4.80;1.87;;;11.60;99.90;;;;;;5076155;28;20232;-83
2022/11/04 08:53:39;;;;;;;5.10;1.70;;;11.60;99.90;;;;;;5081986;28;20202;-82
2022/11/04 08:56:13;;;;;;;6.77;2.17;;;11.70;99.90;;;;;;5077218;28;20202;-81
2022/11/04 08:58:41;;;;;;;7.63;2.33;;;11.50;99.90;;;;;;5071428;28;20217;-81
2022/11/04 09:01:09;;;;;;;7.87;2.43;;;11.60;99.90;;;;;;5075242;28;20233;-82
2022/11/04 09:03:38;;;;;;;7.20;2.07;;;11.60;99.90;;;;;;5081904;28;20198;-81
2022/11/04 09:06:06;;;;;;;6.27;2.17;;;11.50;99.90;;;;;;5085594;28;20671;-81
2022/11/04 09:08:36;;;;;;;8.10;2.53;;;11.60;99.90;;;;;;5076142;28;20201;-81
2022/11/04 09:11:07;;;;;;;5.30;2.10;;;11.60;99.90;;;;;;5084079;28;20222;-80
2022/11/04 09:13:36;;;;;;;4.20;2.20;;;11.60;99.90;;;;;;5076489;28;20284;-81
2022/11/04 09:16:05;;;;;;;3.63;1.90;;;11.80;99.90;;;;;;5081248;28;20202;-80
2022/11/04 09:18:32;;;;;;;6.33;2.67;;;11.70;99.90;;;;;;5073034;28;20225;-80
2022/11/04 09:21:01;;;;;;;7.33;2.80;;;11.70;99.90;;;;;;5079448;28;20590;-80
2022/11/04 09:23:28;;;;;;;6.23;2.70;;;11.60;99.90;;;;;;5077489;28;20197;-81
2022/11/04 09:25:57;;;;;;;7.13;2.93;;;11.60;99.90;;;;;;5083662;28;20208;-81
2022/11/04 09:28:25;;;;;;;5.27;2.70;;;11.50;99.90;;;;;;5084547;28;20208;-81
2022/11/04 09:30:54;;;;;;;6.43;2.20;;;11.50;99.90;;;;;;5098597;28;20228;-81
2022/11/04 09:33:21;;;;;;;5.33;2.50;;;11.50;99.90;;;;;;5085891;28;20201;-80
2022/11/04 09:35:55;;;;;;;7.50;2.27;;;11.60;99.90;;;;;;5078285;28;20205;-80
2022/11/04 09:38:22;;;;;;;4.63;2.00;;;11.50;99.90;;;;;;5078143;28;20213;-82
2022/11/04 09:40:50;;;;;;;9.83;2.40;;;11.60;99.90;;;;;;5075785;28;20586;-82
2022/11/04 09:43:29;;;;;;;8.00;2.73;;;11.60;99.90;;;;;;5080663;28;20198;-80
2022/11/04 09:45:59;;;;;;;5.93;3.43;;;11.50;99.90;;;;;;5075895;28;20200;-80
2022/11/04 09:48:31;;;;;;;3.93;2.20;;;11.60;99.90;;;;;;5082739;28;20198;-80
2022/11/04 09:51:02;;;;;;;8.33;2.00;;;11.70;99.90;;;;;;5077053;28;20229;-84
2022/11/04 09:53:40;;;;;;;3.70;1.47;;;11.70;99.90;;;;;;5078527;28;20197;-81
2022/11/04 09:56:16;;;;;;;3.07;1.83;;;11.70;99.90;;;;;;5075634;28;20209;-81
2022/11/04 09:58:44;;;;;;;6.83;2.40;;;11.80;99.90;;;;;;5078151;28;20547;-80
2022/11/04 10:01:26;;;;;;;6.80;2.10;;;11.70;99.90;;;;;;5074677;28;20244;-80
2022/11/04 10:04:17;;;;;;;7.47;2.73;;;11.80;99.90;;;;;;5071550;28;20198;-80
2022/11/04 10:06:58;;;;;;;6.20;1.97;;;11.70;99.90;;;;;;5077621;28;20202;-81
2022/11/04 10:09:37;;;;;;;4.27;2.23;;;11.90;99.90;;;;;;5067185;28;20222;-81
2022/11/04 10:12:20;;;;;;;5.43;2.40;;;12.10;99.90;;;;;;5078491;28;20209;-81
2022/11/04 10:15:12;;;;;;;4.30;2.23;;;12.20;99.90;;;;;;5074962;28;20197;-80
2022/11/04 10:17:54;;;;;;;5.93;2.00;;;12.20;99.90;;;;;;5075735;28;20209;-81
2022/11/04 10:20:35;;;;;;;7.45;2.17;;;12.40;99.90;;;;;;5075917;28;20232;-83
2022/11/04 10:23:14;;;;;;;6.15;2.58;;;12.50;99.90;;;;;;5079647;28;20200;-82
2022/11/04 10:25:48;;;;;;;4.60;1.88;;;12.90;99.90;;;;;;5075897;28;20663;-80
2022/11/04 10:28:19;;;;;;;3.85;1.50;;;13.10;99.90;;;;;;5078322;28;20631;-80
2022/11/04 10:30:49;;;;;;;4.22;2.25;;;13.30;99.90;;;;;;5077429;28;20229;-80
2022/11/04 10:33:26;;;;;;;4.82;2.22;;;13.30;99.90;;;;;;5072641;28;20200;-80
2022/11/04 10:35:58;;;;;;;6.68;2.85;;;13.30;99.90;;;;;;5063633;28;20208;-81
2022/11/04 10:38:41;;;;;;;2.72;1.38;;;13.30;99.90;;;;;;5074439;28;20197;-80
2022/11/04 10:41:28;;;;;;;3.78;1.70;;;13.60;99.90;;;;;;5074028;28;20221;-79
2022/11/04 10:44:01;;;;;;;6.45;1.75;;;14.00;99.90;;;;;;5071752;28;20639;-80
2022/11/04 10:46:46;;;;;;;6.45;2.70;;;14.50;99.90;;;;;;5075096;28;20201;-81
2022/11/04 10:49:43;;;;;;;5.30;2.60;;;14.00;99.90;;;;;;5070589;28;20228;-81
2022/11/04 10:52:11;;;;;;;3.75;1.77;;;13.70;99.90;;;;;;5067643;28;20197;-82
2022/11/04 10:54:43;;;;;;;3.10;1.55;;;13.60;99.90;;;;;;5074505;28;20553;-80
2022/11/04 10:57:19;;;;;;;2.88;1.17;;;13.60;99.90;;;;;;5076778;28;20193;-80
2022/11/04 10:59:52;;;;;;;3.63;1.55;;;13.50;99.90;;;;;;5070576;28;20231;-81
2022/11/04 11:02:46;;;;;;;5.03;1.60;;;13.50;99.90;;;;;;5075650;28;20201;-81
2022/11/04 11:05:25;;;;;;;6.15;1.58;;;13.60;99.90;;;;;;5081987;28;20209;-81
2022/11/04 11:07:57;;;;;;;7.15;2.13;;;14.30;99.90;;;;;;5075939;28;20209;-81
2022/11/04 11:10:30;;;;;;;4.75;1.45;;;14.70;99.90;;;;;;5073419;28;20218;-81
2022/11/04 11:13:01;;;;;;;5.07;1.67;;;14.10;99.90;;;;;;5075877;28;20197;-81
2022/11/04 11:15:34;;;;;;;4.72;2.20;;;14.30;99.90;;;;;;5076441;28;20189;-81
2022/11/04 11:18:14;;;;;;;2.92;1.40;;;14.50;99.90;;;;;;5069765;28;20555;-81
2022/11/04 11:20:49;;;;;;;3.72;1.95;;;14.30;99.90;;;;;;5068403;28;20224;-81
2022/11/04 11:23:35;;;;;;;6.50;1.50;;;14.50;99.90;;;;;;5093097;22;20228;-81
2022/11/04 11:26:04;;;;;;;6.10;2.03;;;14.60;99.90;;;;;;5046179;28;20198;-82
2022/11/04 11:28:36;;;;;;;3.17;1.50;;;14.70;99.90;;;;;;5052211;28;20210;-81
2022/11/04 11:31:11;;;;;;;4.90;1.83;;;14.20;99.90;;;;;;5052247;28;20207;-82
2022/11/04 11:33:50;;;;;;;4.57;2.40;;;14.00;99.90;;;;;;5044196;28;20234;-82
2022/11/04 11:36:23;;;;;;;3.83;1.90;;;13.80;99.90;;;;;;5028979;28;20206;-81
2022/11/04 11:39:04;;;;;;;7.10;2.10;;;13.60;99.90;;;;;;5028895;28;20198;-82
2022/11/04 11:41:34;;;;;;;6.32;2.45;;;13.80;99.90;;;;;;5029909;28;20195;-82
2022/11/04 11:44:05;;;;;;;6.60;2.03;;;14.20;99.90;;;;;;5036380;28;20214;-81
2022/11/04 11:46:36;;;;;;;5.25;2.20;;;14.40;99.90;;;;;;5030495;28;20199;-80
2022/11/04 11:49:05;;;;;;;9.80;2.65;;;14.30;99.90;;;;;;5045956;28;20640;-81
2022/11/04 11:51:36;;;;;;;5.38;2.22;;;14.40;99.90;;;;;;5036704;28;20203;-82
2022/11/04 11:54:15;;;;;;;5.85;2.58;;;13.90;99.90;;;;;;5047279;28;20215;-82
2022/11/04 11:56:45;;;;;;;4.75;2.17;;;13.60;99.90;;;;;;5041437;28;20206;-81
2022/11/04 11:59:25;;;;;;;3.83;1.90;;;13.70;99.90;;;;;;5056370;28;20207;-81
2022/11/04 12:02:02;;;;;;;3.55;2.35;;;13.70;99.90;;;;;;5029312;28;20206;-81
2022/11/04 12:04:30;;;;;;;4.13;2.55;;;13.60;99.90;;;;;;5032914;28;20218;-82
2022/11/04 12:07:09;;;;;;;5.38;2.63;;;13.40;99.90;;;;;;5035162;28;20199;-81
2022/11/04 12:09:43;;;;;;;5.43;3.28;;;13.20;99.90;;;;;;5033988;28;20202;-81
2022/11/04 12:12:34;;;;;;;7.60;3.22;;;13.30;99.90;;;;;;5034793;28;20683;-81
2022/11/04 12:15:24;;;;;;;4.78;3.20;;;13.20;99.90;;;;;;5038336;28;20692;-80
2022/11/04 12:18:06;;;;;;;5.93;3.17;;;13.30;99.90;;;;;;5046552;28;20198;-81
2022/11/04 12:20:45;;;;;;;4.53;2.70;;;13.20;99.90;;;;;;5032385;28;20242;-79
2022/11/04 12:23:29;;;;;;;4.68;2.85;;;13.30;99.90;;;;;;5027299;28;20198;-80
2022/11/04 12:26:11;;;;;;;7.90;3.60;;;13.60;99.90;;;;;;5024587;28;20199;-80
2022/11/04 12:28:53;;;;;;;6.88;2.83;;;13.70;99.90;;;;;;5032758;28;20656;-80
2022/11/04 12:31:30;;;;;;;6.20;3.25;;;13.70;99.90;;;;;;5060613;28;20195;-81
2022/11/04 12:34:11;;;;;;;8.38;3.80;;;13.60;99.90;;;;;;5024688;28;20621;-80
2022/11/04 12:36:57;;;;;;;7.22;3.55;;;13.50;99.90;;;;;;5028315;28;20207;-81
2022/11/04 12:39:48;;;;;;;4.80;2.75;;;13.30;99.90;;;;;;5031931;28;20203;-80
2022/11/04 12:42:28;;;;;;;8.35;3.40;;;13.20;99.90;;;;;;5031705;28;20195;-81
2022/11/04 12:45:11;;;;;;;7.85;3.30;;;13.20;99.90;;;;;;5033031;28;20224;-79
2022/11/04 12:48:16;;;;;;;5.55;3.47;;;13.10;99.90;;;;;;5046970;28;20203;-80
2022/11/04 12:51:01;;;;;;;8.85;3.90;;;13.20;99.90;;;;;;5015816;28;20270;-80
2022/11/04 12:53:58;;;;;;;6.68;3.58;;;13.20;99.90;;;;;;5032119;28;20254;-80
2022/11/04 12:56:36;;;;;;;6.93;3.80;;;13.30;99.90;;;;;;5028171;28;20669;-79
2022/11/04 12:59:35;;;;;;;7.78;3.90;;;13.40;99.90;;;;;;5032120;28;20199;-80
2022/11/04 13:02:16;;;;;;;6.25;3.30;;;13.30;99.90;;;;;;5029557;28;20663;-83
2022/11/04 13:08:24;;;;;;;7.00;3.88;;;13.30;99.90;;;;;;5046116;28;20656;-82
2022/11/04 13:11:15;;;;;;;;;;;;;;;;;;;;;
2022/11/04 13:13:44;;;;;;;9.60;5.32;;;13.00;99.90;;;;;;5036130;28;20700;-83
2022/11/04 13:16:12;;;;;;;10.13;5.25;;;13.00;99.90;;;;;;5053151;28;20203;-81
2022/11/04 13:18:49;;;;;;;10.85;5.78;;;13.00;99.90;;;;;;5035119;28;20210;-81
2022/11/04 13:21:41;;;;;;;9.05;5.10;;;13.10;99.90;;;;;;5038529;28;20198;-82
2022/11/04 13:24:20;;;;;;;8.15;5.00;;;13.10;99.90;;;;;;5035900;28;20597;-81
2022/11/04 13:26:52;;;;;;;7.22;5.53;;;13.00;99.90;;;;;;5044499;28;20203;-82
2022/11/04 13:29:33;;;;;;;8.20;4.82;;;13.00;99.90;;;;;;5035900;28;20216;-82
2022/11/04 13:32:42;;;;;;;8.15;4.57;;;13.00;99.90;;;;;;5036172;28;20205;-83
2022/11/04 13:35:19;;;;;;;6.28;4.72;;;13.00;99.90;;;;;;5033007;28;20229;-82
2022/11/04 13:37:57;;;;;;;8.52;5.35;;;13.10;99.90;;;;;;5035871;28;20218;-82
2022/11/04 13:40:28;;;;;;;9.02;4.97;;;13.20;99.90;;;;;;5034680;28;20238;-81
2022/11/04 13:46:02;;;;;;;11.57;5.65;;;13.20;99.90;;;;;;5027658;28;20202;-82
2022/11/04 13:48:32;;;;;;;6.68;4.60;;;13.30;99.90;;;;;;5034369;28;20211;-82
2022/11/04 13:51:01;;;;;;;7.68;4.80;;;13.40;99.90;;;;;;5034208;28;20203;-82
2022/11/04 13:53:42;;;;;;;7.15;4.70;;;13.50;99.90;;;;;;5032187;28;20219;-80